Terminal Aerodrome Forecast
Issued by NWS Tallahassee, FL

Home | Current Version | Previous Version | Text Only | Print | Product List | Glossary On
Versions: 1 2 3 4 5 6 7 8 9 10 11 12 13 14 15 16 17 18 19 20 21
894
FTUS42 KTAE 301728
TAFTLH
TAF
KTLH 301728Z 3018/3118 19010KT P6SM SCT040 BKN250
     FM310000 18007KT P6SM BKN100
     FM310400 20008KT 3SM TSRA BKN025CB
     FM311000 29007KT P6SM SCT040=

USA.gov is the U.S. government's official web portal to all federal, state and local government web resources and services.